sensor_id;sensor_type;location;lat;lon;timestamp;pressure;altitude;pressure_sealevel;temperature;humidity
70407;BME280;57821;52.202;0.154;2024-01-07T00:02:19;102320.97;;;3.13;100.00
70407;BME280;57821;52.202;0.154;2024-01-07T00:04:46;102327.03;;;3.15;100.00
70407;BME280;57821;52.202;0.154;2024-01-07T00:07:13;102328.00;;;3.17;100.00
70407;BME280;57821;52.202;0.154;2024-01-07T00:09:39;102329.75;;;3.18;100.00
70407;BME280;57821;52.202;0.154;2024-01-07T00:12:06;102335.03;;;3.21;100.00
70407;BME280;57821;52.202;0.154;2024-01-07T00:14:33;102338.56;;;3.23;100.00
70407;BME280;57821;52.202;0.154;2024-01-07T00:16:59;102335.09;;;3.23;100.00
70407;BME280;57821;52.202;0.154;2024-01-07T00:19:26;102335.28;;;3.26;100.00
70407;BME280;57821;52.202;0.154;2024-01-07T00:21:53;102335.19;;;3.24;100.00
70407;BME280;57821;52.202;0.154;2024-01-07T00:24:19;102348.25;;;3.29;100.00
70407;BME280;57821;52.202;0.154;2024-01-07T00:26:46;102336.31;;;3.29;100.00
70407;BME280;57821;52.202;0.154;2024-01-07T00:29:13;102344.97;;;3.32;100.00
70407;BME280;57821;52.202;0.154;2024-01-07T00:31:39;102336.13;;;3.26;100.00
70407;BME280;57821;52.202;0.154;2024-01-07T00:34:06;102340.56;;;3.29;100.00
70407;BME280;57821;52.202;0.154;2024-01-07T00:36:33;102341.56;;;3.33;100.00
70407;BME280;57821;52.202;0.154;2024-01-07T00:39:00;102350.31;;;3.36;100.00
70407;BME280;57821;52.202;0.154;2024-01-07T00:41:26;102347.84;;;3.38;100.00
70407;BME280;57821;52.202;0.154;2024-01-07T00:43:53;102336.22;;;3.28;100.00
70407;BME280;57821;52.202;0.154;2024-01-07T00:46:20;102347.00;;;3.39;100.00
70407;BME280;57821;52.202;0.154;2024-01-07T00:48:46;102348.78;;;3.40;100.00
70407;BME280;57821;52.202;0.154;2024-01-07T00:51:13;102354.78;;;3.40;100.00
70407;BME280;57821;52.202;0.154;2024-01-07T00:53:40;102352.13;;;3.39;100.00
70407;BME280;57821;52.202;0.154;2024-01-07T00:56:07;102359.22;;;3.43;100.00
70407;BME280;57821;52.202;0.154;2024-01-07T00:58:36;102331.31;;;3.33;100.00
70407;BME280;57821;52.202;0.154;2024-01-07T01:01:03;102349.75;;;3.42;100.00
70407;BME280;57821;52.202;0.154;2024-01-07T01:03:30;102361.13;;;3.47;100.00
70407;BME280;57821;52.202;0.154;2024-01-07T01:05:56;102366.25;;;3.47;100.00
70407;BME280;57821;52.202;0.154;2024-01-07T01:08:23;102362.00;;;3.47;100.00
70407;BME280;57821;52.202;0.154;2024-01-07T01:10:50;102365.44;;;3.48;100.00
70407;BME280;57821;52.202;0.154;2024-01-07T01:13:16;102363.81;;;3.50;100.00
70407;BME280;57821;52.202;0.154;2024-01-07T01:15:44;102366.38;;;3.50;100.00
70407;BME280;57821;52.202;0.154;2024-01-07T01:18:10;102371.50;;;3.50;100.00
70407;BME280;57821;52.202;0.154;2024-01-07T01:20:37;102370.72;;;3.51;100.00
70407;BME280;57821;52.202;0.154;2024-01-07T01:23:04;102371.59;;;3.51;100.00
70407;BME280;57821;52.202;0.154;2024-01-07T01:25:30;102375.03;;;3.52;100.00
70407;BME280;57821;52.202;0.154;2024-01-07T01:27:57;102373.28;;;3.51;100.00
70407;BME280;57821;52.202;0.154;2024-01-07T01:30:25;102369.03;;;3.51;100.00
70407;BME280;57821;52.202;0.154;2024-01-07T01:32:51;102376.94;;;3.56;100.00
70407;BME280;57821;52.202;0.154;2024-01-07T01:35:18;102378.63;;;3.55;100.00
70407;BME280;57821;52.202;0.154;2024-01-07T01:37:45;102381.28;;;3.57;100.00
70407;BME280;57821;52.202;0.154;2024-01-07T01:40:12;102385.63;;;3.58;100.00
70407;BME280;57821;52.202;0.154;2024-01-07T01:42:43;102370.47;;;3.46;100.00
70407;BME280;57821;52.202;0.154;2024-01-07T01:45:10;102391.53;;;3.57;100.00
70407;BME280;57821;52.202;0.154;2024-01-07T01:47:36;102389.72;;;3.54;100.00
70407;BME280;57821;52.202;0.154;2024-01-07T01:50:04;102386.19;;;3.52;100.00
70407;BME280;57821;52.202;0.154;2024-01-07T01:52:31;102392.91;;;3.50;100.00
70407;BME280;57821;52.202;0.154;2024-01-07T01:54:58;102397.00;;;3.47;100.00
70407;BME280;57821;52.202;0.154;2024-01-07T01:57:34;102373.22;;;3.33;100.00
70407;BME280;57821;52.202;0.154;2024-01-07T02:00:04;102401.81;;;3.41;100.00
70407;BME280;57821;52.202;0.154;2024-01-07T02:02:32;102402.53;;;3.38;100.00
70407;BME280;57821;52.202;0.154;2024-01-07T02:05:02;102406.72;;;3.36;100.00
70407;BME280;57821;52.202;0.154;2024-01-07T02:07:30;102406.56;;;3.33;100.00
70407;BME280;57821;52.202;0.154;2024-01-07T02:09:57;102408.97;;;3.30;100.00
70407;BME280;57821;52.202;0.154;2024-01-07T02:12:24;102413.13;;;3.28;100.00
70407;BME280;57821;52.202;0.154;2024-01-07T02:14:51;102414.66;;;3.24;100.00
70407;BME280;57821;52.202;0.154;2024-01-07T02:17:19;102416.03;;;3.18;100.00
70407;BME280;57821;52.202;0.154;2024-01-07T02:19:46;102420.25;;;3.17;100.00
70407;BME280;57821;52.202;0.154;2024-01-07T02:22:13;102417.56;;;3.14;100.00
70407;BME280;57821;52.202;0.154;2024-01-07T02:24:40;102415.59;;;3.10;100.00
70407;BME280;57821;52.202;0.154;2024-01-07T02:27:07;102419.53;;;3.04;100.00
70407;BME280;57821;52.202;0.154;2024-01-07T02:29:33;102428.19;;;3.06;100.00
70407;BME280;57821;52.202;0.154;2024-01-07T02:32:00;102415.84;;;2.99;100.00
70407;BME280;57821;52.202;0.154;2024-01-07T02:34:27;102427.72;;;2.97;100.00
70407;BME280;57821;52.202;0.154;2024-01-07T02:36:55;102425.75;;;2.93;100.00
70407;BME280;57821;52.202;0.154;2024-01-07T02:39:21;102420.41;;;2.88;100.00
70407;BME280;57821;52.202;0.154;2024-01-07T02:41:49;102428.72;;;2.84;100.00
70407;BME280;57821;52.202;0.154;2024-01-07T02:44:16;102425.03;;;2.79;100.00
70407;BME280;57821;52.202;0.154;2024-01-07T02:46:43;102418.94;;;2.77;100.00
70407;BME280;57821;52.202;0.154;2024-01-07T02:49:09;102430.78;;;2.75;100.00
70407;BME280;57821;52.202;0.154;2024-01-07T02:51:36;102421.25;;;2.72;100.00
70407;BME280;57821;52.202;0.154;2024-01-07T02:54:03;102419.50;;;2.71;100.00
70407;BME280;57821;52.202;0.154;2024-01-07T02:56:30;102408.03;;;2.65;100.00
70407;BME280;57821;52.202;0.154;2024-01-07T02:58:57;102422.75;;;2.69;100.00
70407;BME280;57821;52.202;0.154;2024-01-07T03:01:23;102428.84;;;2.71;100.00
70407;BME280;57821;52.202;0.154;2024-01-07T03:03:50;102433.00;;;2.69;100.00
70407;BME280;57821;52.202;0.154;2024-01-07T03:06:17;102423.59;;;2.68;100.00
70407;BME280;57821;52.202;0.154;2024-01-07T03:08:44;102426.06;;;2.66;100.00
70407;BME280;57821;52.202;0.154;2024-01-07T03:11:10;102427.00;;;2.68;100.00
70407;BME280;57821;52.202;0.154;2024-01-07T03:13:37;102429.56;;;2.68;100.00
70407;BME280;57821;52.202;0.154;2024-01-07T03:16:04;102429.56;;;2.68;100.00
70407;BME280;57821;52.202;0.154;2024-01-07T03:18:31;102425.31;;;2.69;100.00
70407;BME280;57821;52.202;0.154;2024-01-07T03:20:58;102427.97;;;2.70;100.00
70407;BME280;57821;52.202;0.154;2024-01-07T03:23:25;102430.63;;;2.72;100.00
70407;BME280;57821;52.202;0.154;2024-01-07T03:25:51;102420.38;;;2.72;100.00
70407;BME280;57821;52.202;0.154;2024-01-07T03:28:18;102430.78;;;2.75;100.00
70407;BME280;57821;52.202;0.154;2024-01-07T03:30:45;102431.84;;;2.78;100.00
70407;BME280;57821;52.202;0.154;2024-01-07T03:33:12;102427.66;;;2.80;100.00
70407;BME280;57821;52.202;0.154;2024-01-07T03:35:38;102432.88;;;2.82;100.00
70407;BME280;57821;52.202;0.154;2024-01-07T03:38:05;102443.31;;;2.85;100.00
70407;BME280;57821;52.202;0.154;2024-01-07T03:40:32;102443.31;;;2.85;100.00
70407;BME280;57821;52.202;0.154;2024-01-07T03:42:59;102437.22;;;2.83;100.00
70407;BME280;57821;52.202;0.154;2024-01-07T03:45:26;102443.47;;;2.88;100.00
70407;BME280;57821;52.202;0.154;2024-01-07T03:47:53;102439.03;;;2.85;100.00
70407;BME280;57821;52.202;0.154;2024-01-07T03:50:20;102431.28;;;2.84;100.00
70407;BME280;57821;52.202;0.154;2024-01-07T03:52:46;102450.44;;;2.91;100.00
70407;BME280;57821;52.202;0.154;2024-01-07T03:55:13;102449.63;;;2.92;100.00
70407;BME280;57821;52.202;0.154;2024-01-07T03:57:40;102447.94;;;2.92;100.00
70407;BME280;57821;52.202;0.154;2024-01-07T04:00:07;102447.16;;;2.93;100.00
70407;BME280;57821;52.202;0.154;2024-01-07T04:02:34;102438.66;;;2.94;100.00
70407;BME280;57821;52.202;0.154;2024-01-07T04:05:01;102438.66;;;2.94;100.00
70407;BME280;57821;52.202;0.154;2024-01-07T04:07:28;102448.03;;;2.94;100.00
70407;BME280;57821;52.202;0.154;2024-01-07T04:09:54;102450.50;;;2.92;100.00
70407;BME280;57821;52.202;0.154;2024-01-07T04:12:21;102453.94;;;2.93;100.00
70407;BME280;57821;52.202;0.154;2024-01-07T04:14:48;102459.16;;;2.94;100.00
70407;BME280;57821;52.202;0.154;2024-01-07T04:17:15;102466.94;;;2.96;100.00
70407;BME280;57821;52.202;0.154;2024-01-07T04:19:41;102464.44;;;2.97;100.00
70407;BME280;57821;52.202;0.154;2024-01-07T04:22:08;102460.19;;;2.98;100.00
70407;BME280;57821;52.202;0.154;2024-01-07T04:24:42;102467.09;;;2.99;100.00
70407;BME280;57821;52.202;0.154;2024-01-07T04:27:08;102467.97;;;2.99;100.00
70407;BME280;57821;52.202;0.154;2024-01-07T04:29:35;102469.66;;;2.99;100.00
70407;BME280;57821;52.202;0.154;2024-01-07T04:32:02;102472.31;;;3.00;100.00
70407;BME280;57821;52.202;0.154;2024-01-07T04:34:29;102473.97;;;3.00;100.00
70407;BME280;57821;52.202;0.154;2024-01-07T04:36:57;102477.44;;;3.00;100.00
70407;BME280;57821;52.202;0.154;2024-01-07T04:39:24;102476.66;;;3.01;100.00
70407;BME280;57821;52.202;0.154;2024-01-07T04:41:50;102476.56;;;3.00;100.00
70407;BME280;57821;52.202;0.154;2024-01-07T04:44:17;102488.47;;;2.99;100.00
70407;BME280;57821;52.202;0.154;2024-01-07T04:46:44;102480.88;;;3.01;100.00
70407;BME280;57821;52.202;0.154;2024-01-07T04:49:11;102474.69;;;2.97;100.00
70407;BME280;57821;52.202;0.154;2024-01-07T04:51:38;102492.03;;;3.01;100.00
70407;BME280;57821;52.202;0.154;2024-01-07T04:54:04;102492.03;;;3.01;100.00
70407;BME280;57821;52.202;0.154;2024-01-07T04:56:32;102495.47;;;3.02;100.00
70407;BME280;57821;52.202;0.154;2024-01-07T04:58:59;102492.03;;;3.01;100.00
70407;BME280;57821;52.202;0.154;2024-01-07T05:01:26;102495.38;;;3.00;100.00
70407;BME280;57821;52.202;0.154;2024-01-07T05:03:52;102495.38;;;3.00;100.00
70407;BME280;57821;52.202;0.154;2024-01-07T05:06:19;102498.81;;;3.01;100.00
70407;BME280;57821;52.202;0.154;2024-01-07T05:08:46;102501.38;;;3.01;100.00
70407;BME280;57821;52.202;0.154;2024-01-07T05:11:13;102508.28;;;3.02;100.00
70407;BME280;57821;52.202;0.154;2024-01-07T05:13:39;102514.28;;;3.02;100.00
70407;BME280;57821;52.202;0.154;2024-01-07T05:16:06;102503.84;;;2.99;100.00
70407;BME280;57821;52.202;0.154;2024-01-07T05:18:33;102511.53;;;2.99;100.00
70407;BME280;57821;52.202;0.154;2024-01-07T05:21:00;102510.03;;;3.03;100.00
70407;BME280;57821;52.202;0.154;2024-01-07T05:23:26;102523.00;;;3.06;100.00
70407;BME280;57821;52.202;0.154;2024-01-07T05:25:53;102522.13;;;3.05;100.00
70407;BME280;57821;52.202;0.154;2024-01-07T05:28:20;102523.09;;;3.07;100.00
70407;BME280;57821;52.202;0.154;2024-01-07T05:30:48;102500.00;;;2.91;100.00
70407;BME280;57821;52.202;0.154;2024-01-07T05:33:16;102533.41;;;3.09;100.00
70407;BME280;57821;52.202;0.154;2024-01-07T05:35:42;102532.63;;;3.10;100.00
70407;BME280;57821;52.202;0.154;2024-01-07T05:38:09;102535.97;;;3.09;100.00
70407;BME280;57821;52.202;0.154;2024-01-07T05:40:36;102540.41;;;3.11;100.00
70407;BME280;57821;52.202;0.154;2024-01-07T05:43:03;102545.53;;;3.11;100.00
70407;BME280;57821;52.202;0.154;2024-01-07T05:45:30;102545.63;;;3.13;100.00
70407;BME280;57821;52.202;0.154;2024-01-07T05:47:56;102541.38;;;3.13;100.00
70407;BME280;57821;52.202;0.154;2024-01-07T05:50:23;102543.94;;;3.13;100.00
70407;BME280;57821;52.202;0.154;2024-01-07T05:52:50;102553.41;;;3.14;100.00
70407;BME280;57821;52.202;0.154;2024-01-07T05:55:17;102550.84;;;3.14;100.00
70407;BME280;57821;52.202;0.154;2024-01-07T05:57:43;102557.69;;;3.15;100.00
70407;BME280;57821;52.202;0.154;2024-01-07T06:00:11;102556.81;;;3.15;100.00
70407;BME280;57821;52.202;0.154;2024-01-07T06:02:39;102561.09;;;3.14;100.00
70407;BME280;57821;52.202;0.154;2024-01-07T06:05:06;102561.59;;;3.09;100.00
70407;BME280;57821;52.202;0.154;2024-01-07T06:07:33;102561.88;;;3.13;100.00
70407;BME280;57821;52.202;0.154;2024-01-07T06:10:00;102558.53;;;3.14;100.00
70407;BME280;57821;52.202;0.154;2024-01-07T06:12:27;102568.06;;;3.17;100.00
70407;BME280;57821;52.202;0.154;2024-01-07T06:14:53;102563.81;;;3.17;100.00
70407;BME280;57821;52.202;0.154;2024-01-07T06:17:20;102571.59;;;3.19;100.00
70407;BME280;57821;52.202;0.154;2024-01-07T06:19:47;102569.72;;;3.16;100.00
70407;BME280;57821;52.202;0.154;2024-01-07T06:22:13;102570.94;;;3.23;100.00
70407;BME280;57821;52.202;0.154;2024-01-07T06:24:40;102582.09;;;3.23;100.00
70407;BME280;57821;52.202;0.154;2024-01-07T06:27:07;102582.97;;;3.24;100.00
70407;BME280;57821;52.202;0.154;2024-01-07T06:29:34;102582.25;;;3.26;100.00
70407;BME280;57821;52.202;0.154;2024-01-07T06:32:01;102589.94;;;3.26;100.00
70407;BME280;57821;52.202;0.154;2024-01-07T06:34:29;102589.13;;;3.27;100.00
70407;BME280;57821;52.202;0.154;2024-01-07T06:36:56;102589.31;;;3.30;100.00
70407;BME280;57821;52.202;0.154;2024-01-07T06:39:22;102596.22;;;3.32;100.00
70407;BME280;57821;52.202;0.154;2024-01-07T06:41:49;102602.19;;;3.32;100.00
70407;BME280;57821;52.202;0.154;2024-01-07T06:44:16;102599.72;;;3.34;100.00
70407;BME280;57821;52.202;0.154;2024-01-07T06:46:42;102603.97;;;3.33;100.00
70407;BME280;57821;52.202;0.154;2024-01-07T06:49:10;102607.28;;;3.30;100.00
70407;BME280;57821;52.202;0.154;2024-01-07T06:51:38;102616.00;;;3.34;100.00
70407;BME280;57821;52.202;0.154;2024-01-07T06:54:05;102606.38;;;3.30;100.00
70407;BME280;57821;52.202;0.154;2024-01-07T06:56:31;102616.00;;;3.34;100.00
70407;BME280;57821;52.202;0.154;2024-01-07T06:58:58;102617.78;;;3.35;100.00
70407;BME280;57821;52.202;0.154;2024-01-07T07:01:25;102620.44;;;3.37;100.00
70407;BME280;57821;52.202;0.154;2024-01-07T07:03:52;102615.31;;;3.37;100.00
70407;BME280;57821;52.202;0.154;2024-01-07T07:06:19;102624.69;;;3.36;100.00
70407;BME280;57821;52.202;0.154;2024-01-07T07:08:46;102627.25;;;3.36;100.00
70407;BME280;57821;52.202;0.154;2024-01-07T07:11:12;102621.13;;;3.34;100.00
70407;BME280;57821;52.202;0.154;2024-01-07T07:13:39;102635.81;;;3.37;100.00
70407;BME280;57821;52.202;0.154;2024-01-07T07:16:06;102630.69;;;3.37;100.00
70407;BME280;57821;52.202;0.154;2024-01-07T07:18:34;102634.19;;;3.39;100.00
70407;BME280;57821;52.202;0.154;2024-01-07T07:21:01;102634.75;;;3.33;100.00
70407;BME280;57821;52.202;0.154;2024-01-07T07:23:27;102646.22;;;3.40;100.00
70407;BME280;57821;52.202;0.154;2024-01-07T07:25:54;102643.66;;;3.40;100.00
70407;BME280;57821;52.202;0.154;2024-01-07T07:28:21;102642.72;;;3.38;100.00
70407;BME280;57821;52.202;0.154;2024-01-07T07:30:48;102652.25;;;3.40;100.00
70407;BME280;57821;52.202;0.154;2024-01-07T07:33:18;102659.22;;;3.43;100.00
70407;BME280;57821;52.202;0.154;2024-01-07T07:35:45;102654.91;;;3.42;100.00
70407;BME280;57821;52.202;0.154;2024-01-07T07:38:12;102659.28;;;3.44;100.00
70407;BME280;57821;52.202;0.154;2024-01-07T07:40:39;102654.91;;;3.42;100.00
70407;BME280;57821;52.202;0.154;2024-01-07T07:43:06;102662.84;;;3.46;100.00
70407;BME280;57821;52.202;0.154;2024-01-07T07:45:33;102670.44;;;3.45;100.00
70407;BME280;57821;52.202;0.154;2024-01-07T07:48:01;102675.75;;;3.48;100.00
70407;BME280;57821;52.202;0.154;2024-01-07T07:50:27;102685.28;;;3.50;100.00
70407;BME280;57821;52.202;0.154;2024-01-07T07:52:54;102681.81;;;3.50;100.00
70407;BME280;57821;52.202;0.154;2024-01-07T07:55:21;102685.28;;;3.50;100.00
70407;BME280;57821;52.202;0.154;2024-01-07T07:57:48;102685.28;;;3.50;100.00
70407;BME280;57821;52.202;0.154;2024-01-07T08:00:15;102687.78;;;3.49;100.00
70407;BME280;57821;52.202;0.154;2024-01-07T08:02:42;102695.63;;;3.52;100.00
70407;BME280;57821;52.202;0.154;2024-01-07T08:05:09;102693.06;;;3.52;100.00
70407;BME280;57821;52.202;0.154;2024-01-07T08:07:35;102693.16;;;3.53;100.00
70407;BME280;57821;52.202;0.154;2024-01-07T08:10:02;102692.28;;;3.53;100.00
70407;BME280;57821;52.202;0.154;2024-01-07T08:12:29;102697.41;;;3.53;100.00
70407;BME280;57821;52.202;0.154;2024-01-07T08:14:56;102709.34;;;3.52;100.00
70407;BME280;57821;52.202;0.154;2024-01-07T08:17:22;102709.44;;;3.54;100.00
70407;BME280;57821;52.202;0.154;2024-01-07T08:19:51;102704.38;;;3.55;100.00
70407;BME280;57821;52.202;0.154;2024-01-07T08:22:19;102715.50;;;3.56;100.00
70407;BME280;57821;52.202;0.154;2024-01-07T08:24:46;102716.41;;;3.56;100.00
70407;BME280;57821;52.202;0.154;2024-01-07T08:27:13;102721.53;;;3.56;100.00
70407;BME280;57821;52.202;0.154;2024-01-07T08:29:42;102718.03;;;3.54;100.00
70407;BME280;57821;52.202;0.154;2024-01-07T08:32:10;102728.44;;;3.57;100.00
70407;BME280;57821;52.202;0.154;2024-01-07T08:34:39;102730.22;;;3.58;100.00
70407;BME280;57821;52.202;0.154;2024-01-07T08:37:07;102736.22;;;3.59;100.00
70407;BME280;57821;52.202;0.154;2024-01-07T08:39:37;102736.22;;;3.59;100.00
70407;BME280;57821;52.202;0.154;2024-01-07T08:42:04;102739.69;;;3.59;100.00
70407;BME280;57821;52.202;0.154;2024-01-07T08:44:31;102746.47;;;3.59;100.00
70407;BME280;57821;52.202;0.154;2024-01-07T08:46:58;102749.84;;;3.58;100.00
70407;BME280;57821;52.202;0.154;2024-01-07T08:49:31;102725.91;;;3.43;100.00
70407;BME280;57821;52.202;0.154;2024-01-07T08:52:00;102753.84;;;3.53;100.00
70407;BME280;57821;52.202;0.154;2024-01-07T08:54:27;102747.13;;;3.55;100.00
70407;BME280;57821;52.202;0.154;2024-01-07T08:56:53;102750.38;;;3.52;100.00
70407;BME280;57821;52.202;0.154;2024-01-07T08:59:20;102754.63;;;3.52;100.00
70407;BME280;57821;52.202;0.154;2024-01-07T09:01:47;102751.19;;;3.51;100.00
70407;BME280;57821;52.202;0.154;2024-01-07T09:04:14;102751.91;;;3.49;100.00
70407;BME280;57821;52.202;0.154;2024-01-07T09:06:44;102760.38;;;3.48;100.00
70407;BME280;57821;52.202;0.154;2024-01-07T09:09:11;102769.84;;;3.49;100.00
70407;BME280;57821;52.202;0.154;2024-01-07T09:11:37;102776.72;;;3.50;100.00
70407;BME280;57821;52.202;0.154;2024-01-07T09:14:04;102771.59;;;3.50;100.00
70407;BME280;57821;52.202;0.154;2024-01-07T09:16:31;102778.25;;;3.46;100.00
70407;BME280;57821;52.202;0.154;2024-01-07T09:18:58;102791.31;;;3.51;100.00
70407;BME280;57821;52.202;0.154;2024-01-07T09:21:24;102787.19;;;3.53;100.00
70407;BME280;57821;52.202;0.154;2024-01-07T09:23:52;102795.91;;;3.56;100.00
70407;BME280;57821;52.202;0.154;2024-01-07T09:26:18;102802.81;;;3.57;100.00
70407;BME280;57821;52.202;0.154;2024-01-07T09:28:45;102809.88;;;3.61;100.00
70407;BME280;57821;52.202;0.154;2024-01-07T09:31:12;102812.91;;;3.69;100.00
70407;BME280;57821;52.202;0.154;2024-01-07T09:33:38;102808.91;;;3.74;100.00
70407;BME280;57821;52.202;0.154;2024-01-07T09:36:07;102818.63;;;3.94;100.00
70407;BME280;57821;52.202;0.154;2024-01-07T09:38:51;102813.56;;;4.27;100.00
70407;BME280;57821;52.202;0.154;2024-01-07T09:41:20;102821.31;;;4.59;100.00
70407;BME280;57821;52.202;0.154;2024-01-07T09:43:47;102830.94;;;4.95;100.00
70407;BME280;57821;52.202;0.154;2024-01-07T09:46:14;102837.09;;;5.31;100.00
70407;BME280;57821;52.202;0.154;2024-01-07T09:48:41;102833.06;;;5.70;100.00
70407;BME280;57821;52.202;0.154;2024-01-07T09:51:09;102845.00;;;6.22;100.00
70407;BME280;57821;52.202;0.154;2024-01-07T09:53:39;102841.88;;;6.66;100.00
70407;BME280;57821;52.202;0.154;2024-01-07T09:56:20;102812.38;;;6.97;100.00
70407;BME280;57821;52.202;0.154;2024-01-07T09:58:49;102843.06;;;7.51;100.00
70407;BME280;57821;52.202;0.154;2024-01-07T10:01:19;102846.56;;;7.94;100.00
70407;BME280;57821;52.202;0.154;2024-01-07T10:03:47;102847.22;;;8.32;100.00
70407;BME280;57821;52.202;0.154;2024-01-07T10:06:18;102842.28;;;8.60;100.00
70407;BME280;57821;52.202;0.154;2024-01-07T10:08:44;102848.34;;;8.84;100.00
70407;BME280;57821;52.202;0.154;2024-01-07T10:11:16;102822.78;;;8.70;100.00
70407;BME280;57821;52.202;0.154;2024-01-07T10:13:46;102854.56;;;8.89;100.00
70407;BME280;57821;52.202;0.154;2024-01-07T10:16:14;102849.25;;;8.85;100.00
70407;BME280;57821;52.202;0.154;2024-01-07T10:18:41;102863.75;;;8.81;100.00
70407;BME280;57821;52.202;0.154;2024-01-07T10:21:08;102865.22;;;8.75;100.00
70407;BME280;57821;52.202;0.154;2024-01-07T10:23:35;102859.56;;;8.61;100.00
70407;BME280;57821;52.202;0.154;2024-01-07T10:26:01;102864.09;;;8.44;100.00
70407;BME280;57821;52.202;0.154;2024-01-07T10:28:41;102863.28;;;8.24;100.00
70407;BME280;57821;52.202;0.154;2024-01-07T10:31:07;102857.53;;;8.09;100.00
70407;BME280;57821;52.202;0.154;2024-01-07T10:33:34;102858.53;;;7.92;100.00
70407;BME280;57821;52.202;0.154;2024-01-07T10:36:05;102835.81;;;7.63;100.00
70407;BME280;57821;52.202;0.154;2024-01-07T10:38:32;102865.03;;;7.62;100.00
70407;BME280;57821;52.202;0.154;2024-01-07T10:41:00;102856.50;;;7.43;100.00
70407;BME280;57821;52.202;0.154;2024-01-07T10:43:30;102850.38;;;7.21;100.00
70407;BME280;57821;52.202;0.154;2024-01-07T10:46:00;102849.50;;;7.01;100.00
70407;BME280;57821;52.202;0.154;2024-01-07T10:48:31;102846.09;;;6.83;100.00
70407;BME280;57821;52.202;0.154;2024-01-07T10:51:00;102865.91;;;6.84;100.00
70407;BME280;57821;52.202;0.154;2024-01-07T10:53:31;102868.22;;;6.78;100.00
70407;BME280;57821;52.202;0.154;2024-01-07T10:56:03;102838.22;;;6.60;100.00
70407;BME280;57821;52.202;0.154;2024-01-07T10:58:36;102862.50;;;6.66;100.00
70407;BME280;57821;52.202;0.154;2024-01-07T11:01:03;102869.31;;;6.64;100.00
70407;BME280;57821;52.202;0.154;2024-01-07T11:03:43;102872.06;;;6.49;100.00
70407;BME280;57821;52.202;0.154;2024-01-07T11:06:48;102878.09;;;6.49;100.00
70407;BME280;57821;52.202;0.154;2024-01-07T11:11:50;102869.88;;;6.39;100.00
70407;BME280;57821;52.202;0.154;2024-01-07T11:17:14;102868.47;;;6.28;100.00
70407;BME280;57821;52.202;0.154;2024-01-07T11:19:50;102870.00;;;6.24;100.00
70407;BME280;57821;52.202;0.154;2024-01-07T11:22:25;102870.00;;;6.24;100.00
70407;BME280;57821;52.202;0.154;2024-01-07T11:24:59;102874.44;;;6.27;100.00
70407;BME280;57821;52.202;0.154;2024-01-07T11:27:30;102863.25;;;6.26;100.00
70407;BME280;57821;52.202;0.154;2024-01-07T11:30:06;102875.16;;;6.24;100.00
70407;BME280;57821;52.202;0.154;2024-01-07T11:32:34;102870.84;;;6.23;100.00
70407;BME280;57821;52.202;0.154;2024-01-07T11:35:01;102876.81;;;6.22;100.00
70407;BME280;57821;52.202;0.154;2024-01-07T11:37:29;102875.72;;;6.17;100.00
70407;BME280;57821;52.202;0.154;2024-01-07T11:39:57;102884.44;;;6.21;100.00
70407;BME280;57821;52.202;0.154;2024-01-07T11:42:24;102883.72;;;6.23;100.00
70407;BME280;57821;52.202;0.154;2024-01-07T11:44:55;102882.09;;;6.25;100.00
70407;BME280;57821;52.202;0.154;2024-01-07T11:47:23;102884.00;;;6.29;100.00
70407;BME280;57821;52.202;0.154;2024-01-07T11:49:50;102881.56;;;6.32;100.00
70407;BME280;57821;52.202;0.154;2024-01-07T11:52:17;102887.69;;;6.34;100.00
70407;BME280;57821;52.202;0.154;2024-01-07T11:54:45;102877.38;;;6.34;100.00
70407;BME280;57821;52.202;0.154;2024-01-07T11:57:13;102877.81;;;6.43;100.00
70407;BME280;57821;52.202;0.154;2024-01-07T11:59:40;102877.50;;;6.55;100.00
70407;BME280;57821;52.202;0.154;2024-01-07T12:02:10;102893.31;;;6.63;100.00
70407;BME280;57821;52.202;0.154;2024-01-07T12:04:37;102882.47;;;6.70;100.00
70407;BME280;57821;52.202;0.154;2024-01-07T12:07:04;102888.94;;;6.79;100.00
70407;BME280;57821;52.202;0.154;2024-01-07T12:09:31;102878.22;;;6.89;100.00
70407;BME280;57821;52.202;0.154;2024-01-07T12:11:59;102881.25;;;7.00;100.00
70407;BME280;57821;52.202;0.154;2024-01-07T12:14:27;102872.91;;;7.06;100.00
70407;BME280;57821;52.202;0.154;2024-01-07T12:16:55;102877.44;;;7.11;100.00
70407;BME280;57821;52.202;0.154;2024-01-07T12:19:22;102888.81;;;7.15;100.00
70407;BME280;57821;52.202;0.154;2024-01-07T12:22:03;102879.22;;;7.12;100.00
70407;BME280;57821;52.202;0.154;2024-01-07T12:24:33;102887.91;;;7.14;100.00
70407;BME280;57821;52.202;0.154;2024-01-07T12:27:06;102879.28;;;7.14;100.00
70407;BME280;57821;52.202;0.154;2024-01-07T12:29:33;102881.69;;;7.09;100.00
70407;BME280;57821;52.202;0.154;2024-01-07T12:32:00;102884.00;;;7.03;100.00
70407;BME280;57821;52.202;0.154;2024-01-07T12:34:30;102884.59;;;6.97;100.00
70407;BME280;57821;52.202;0.154;2024-01-07T12:36:56;102891.03;;;6.88;100.00
70407;BME280;57821;52.202;0.154;2024-01-07T12:39:25;102890.69;;;6.80;100.00
70407;BME280;57821;52.202;0.154;2024-01-07T12:41:54;102897.47;;;6.78;100.00
70407;BME280;57821;52.202;0.154;2024-01-07T12:44:21;102896.22;;;6.70;100.00
70407;BME280;57821;52.202;0.154;2024-01-07T12:46:47;102894.41;;;6.68;100.00
70407;BME280;57821;52.202;0.154;2024-01-07T12:49:18;102885.59;;;6.63;100.00
70407;BME280;57821;52.202;0.154;2024-01-07T12:51:45;102892.56;;;6.65;100.00
70407;BME280;57821;52.202;0.154;2024-01-07T12:54:12;102891.06;;;6.70;100.00
70407;BME280;57821;52.202;0.154;2024-01-07T12:56:38;102888.94;;;6.79;100.00
70407;BME280;57821;52.202;0.154;2024-01-07T12:59:05;102888.31;;;6.85;100.00